Pacific Explorer — WCX9971 — position and weather

sailwx.info

Track history (hours):
 
Tides and Currents Weather Stations Pressure Air Temp Water Temp Dewpoint Dewpoint Depression Visibility Wind Speed Wind Dir Waves Ship Positions

Pacific Explorer

Owner: BAYDELTA MARITIME INC, SAN FRANCISCO, CA. More information available from US FCC via Universal Licensing System and Coast Guard Vessel Documentation Center.

Last reported at 2015-Dec-13 07:32 UTC. Time now 2016-Feb-13 23:42 UTC.
Position N 52°16' W 128°25'.
Warning: this ship's position is months out of date.

Length 33 m; draft 5 m.

Type: Tug. MMSI: 366744920.

Date/timePositionNaut miles runAvg speedWind from/ knotsBaromVisibWave heightAir tempDewpointWater temp
2015-Dec-13 07:32N 52°16' W 128°25'1111.0
2015-Dec-13 06:33N 52°12' W 128°08'8 8.3
2015-Dec-13 05:33N 52°04' W 128°03'8 8.0
2015-Dec-13 04:30N 51°57' W 127°56'4510.9
2015-Dec-13 00:21N 51°12' W 127°51'911.7
2015-Dec-12 23:33N 51°05' W 127°42'1211.9
2015-Dec-12 22:33N 50°57' W 127°28'1111.2
2015-Dec-12 21:33N 50°50' W 127°13'7411.7
2015-Dec-12 15:10N 50°21' W 125°26'711.6
2015-Dec-12 14:32N 50°13' W 125°23'1010.3
2015-Dec-12 13:34N 50°05' W 125°16'10 9.5
2015-Dec-12 12:34N 49°57' W 125°07'1111.2
2015-Dec-12 11:33N 49°50' W 124°53'1110.8
2015-Dec-12 10:33N 49°43' W 124°40'1111.4
2015-Dec-12 09:34N 49°36' W 124°27'1111.3
2015-Dec-12 08:34N 49°30' W 124°11'1110.6
2015-Dec-12 07:34N 49°24' W 123°59'1110.7
2015-Dec-12 06:33N 49°17' W 123°46'1010.3
2015-Dec-12 05:34N 49°11' W 123°33'1110.7
2015-Dec-12 04:33N 49°04' W 123°21'9 9.5
2015-Dec-12 03:34N 48°58' W 123°10'10 9.8
2015-Dec-12 02:33N 48°51' W 122°58'10 9.8
2015-Dec-12 01:33N 48°46' W 122°46'9 9.4
2015-Dec-12 00:33N 48°36' W 122°45'1211.4
2015-Dec-11 23:31N 48°25' W 122°44'2210.3
2015-Dec-11 21:21N 48°03' W 122°38'911.1
2015-Dec-11 20:33N 47°56' W 122°29'1212.2
2015-Dec-11 19:34N 47°44' W 122°26'9 9.3
2015-Dec-11 18:34N 47°35' W 122°21'0 0.0
2015-Dec-11 17:33N 47°35' W 122°21'0 0.0
2015-Dec-11 16:34N 47°35' W 122°21'0 0.0
2015-Dec-11 15:34N 47°35' W 122°21'0 0.0
2015-Dec-11 14:34N 47°35' W 122°21'0 0.0
2015-Dec-11 13:34N 47°35' W 122°21'0 0.0
2015-Dec-11 12:34N 47°35' W 122°21'0 0.0
2015-Dec-11 11:33N 47°35' W 122°21'0 0.0
2015-Dec-11 10:33N 47°35' W 122°21'0 0.0
2015-Dec-11 09:34N 47°35' W 122°21'0 0.0
2015-Dec-11 08:34N 47°35' W 122°21'0 0.0
2015-Dec-11 07:34N 47°35' W 122°21'0 0.1
2015-Dec-11 06:34N 47°35' W 122°21'0 0.2
2015-Dec-11 05:34N 47°36' W 122°21'0 0.1
2015-Dec-11 04:34N 47°35' W 122°22'0 0.2
2015-Dec-11 03:34N 47°35' W 122°21'5 5.0
2015-Dec-11 02:34N 47°39' W 122°26'1110.6
2015-Dec-11 01:33N 47°50' W 122°24'3 3.4
2015-Dec-11 00:33N 47°53' W 122°22'1212.3
2015-Dec-10 23:33N 47°41' W 122°26'7 6.6
2015-Dec-10 22:33N 47°35' W 122°21'0 0.0
2015-Dec-10 21:33N 47°35' W 122°21'0 0.0
2015-Dec-10 20:33N 47°35' W 122°21'0 0.0
2015-Dec-10 19:33N 47°35' W 122°21'0 0.0
2015-Dec-10 18:33N 47°35' W 122°21'0 0.1
2015-Dec-10 17:34N 47°35' W 122°21'5 4.8
2015-Dec-10 16:34N 47°39' W 122°26'0 0.4
2015-Dec-10 15:34N 47°39' W 122°27'2 2.1
2015-Dec-10 14:32N 47°40' W 122°24'1 1.2
2015-Dec-10 13:32N 47°39' W 122°22'0 0.0
2015-Dec-10 12:32N 47°39' W 122°22'0 0.0
2015-Dec-10 11:32N 47°39' W 122°22'0 0.0
2015-Dec-10 10:32N 47°39' W 122°22'0 0.0
2015-Dec-10 09:32N 47°39' W 122°22'0 0.0
2015-Dec-10 08:32N 47°39' W 122°22'0 0.0
2015-Dec-10 07:32N 47°39' W 122°22'0 0.0
2015-Dec-10 06:32N 47°39' W 122°22'0 0.0
2015-Dec-10 05:32N 47°39' W 122°22'0 0.0
2015-Dec-10 04:28N 47°39' W 122°22'0 0.0
2015-Dec-10 03:31N 47°39' W 122°22'0 0.0
2015-Dec-10 02:31N 47°39' W 122°22'0 0.0
2015-Dec-10 01:31N 47°39' W 122°22'0 0.0
2015-Dec-10 00:31N 47°39' W 122°22'0 0.0
2015-Dec-09 23:31N 47°39' W 122°22'0 0.0
2015-Dec-09 22:31N 47°39' W 122°22'0 0.0
2015-Dec-09 21:31N 47°39' W 122°22'0 0.0
2015-Dec-09 20:31N 47°39' W 122°22'0 0.0
2015-Dec-09 19:31N 47°39' W 122°22'0 0.0
2015-Dec-09 18:31N 47°39' W 122°22'0 0.0
2015-Dec-09 17:31N 47°39' W 122°22'0 0.0
2015-Dec-09 16:31N 47°39' W 122°22'0 0.0
2015-Dec-09 15:31N 47°39' W 122°22'0 0.0
2015-Dec-09 14:31N 47°39' W 122°22'0 0.0
2015-Dec-09 13:31N 47°39' W 122°22'0 0.0
2015-Dec-09 12:31N 47°39' W 122°22'0 0.0
2015-Dec-09 11:31N 47°39' W 122°22'0 0.0
2015-Dec-09 10:31N 47°39' W 122°22'0 0.0
2015-Dec-09 09:31N 47°39' W 122°22'0 0.0
2015-Dec-09 08:31N 47°39' W 122°22'0 0.0
2015-Dec-09 07:28N 47°39' W 122°22'0 0.0
2015-Dec-09 06:31N 47°39' W 122°22'0 0.0
2015-Dec-09 05:31N 47°39' W 122°22'0 0.0
2015-Dec-09 04:31N 47°39' W 122°22'0 0.0
2015-Dec-09 03:31N 47°39' W 122°22'0 0.0
2015-Dec-09 02:31N 47°39' W 122°22'0 0.0
2015-Dec-09 01:31N 47°39' W 122°22'0 0.0
2015-Dec-09 00:31N 47°39' W 122°22'0 0.0
2015-Dec-08 23:31N 47°39' W 122°22'0 0.0
2015-Dec-08 22:31N 47°39' W 122°22'0 0.0
2015-Dec-08 21:31N 47°39' W 122°22'0 0.0
2015-Dec-08 20:34N 47°39' W 122°22'0 0.0
2015-Dec-08 19:33N 47°39' W 122°22'0 0.0
2015-Dec-08 18:33N 47°39' W 122°22'0 0.0
2015-Dec-08 17:33N 47°39' W 122°22'0 0.0
2015-Dec-08 16:33N 47°39' W 122°22'0 0.0
2015-Dec-08 15:33N 47°39' W 122°22'0 0.0
2015-Dec-08 14:33N 47°39' W 122°22'0 0.0
2015-Dec-08 13:33N 47°39' W 122°22'0 0.0
2015-Dec-08 12:33N 47°39' W 122°22'0 0.0
2015-Dec-08 11:33N 47°39' W 122°22'0 0.0
2015-Dec-08 10:33N 47°39' W 122°22'0 0.0
2015-Dec-08 09:33N 47°39' W 122°22'0 0.0
2015-Dec-08 08:33N 47°39' W 122°22'0 0.0
2015-Dec-08 07:33N 47°39' W 122°22'0 0.0
2015-Dec-08 06:33N 47°39' W 122°22'0 0.0
2015-Dec-08 05:33N 47°39' W 122°22'0 0.0
2015-Dec-08 04:33N 47°39' W 122°22'0 0.0
2015-Dec-08 03:33N 47°39' W 122°22'0 0.0
2015-Dec-08 02:33N 47°39' W 122°22'0 0.0
2015-Dec-08 01:33N 47°39' W 122°22'0 0.0
2015-Dec-08 00:33N 47°39' W 122°22'0 0.0
2015-Dec-07 23:33N 47°39' W 122°22'  
Track history (hours):
 
Tides and Currents Weather Stations Pressure Air Temp Water Temp Dewpoint Dewpoint Depression Visibility Wind Speed Wind Dir Waves Ship Positions

Pacific Explorer

Owner: BAYDELTA MARITIME INC, SAN FRANCISCO, CA. More information available from US FCC via Universal Licensing System and Coast Guard Vessel Documentation Center.

Last reported at 2015-Dec-13 07:32 UTC. Time now 2016-Feb-13 23:42 UTC.
Position N 52°16' W 128°25'.
Warning: this ship's position is months out of date.

Length 33 m; draft 5 m.

Type: Tug. MMSI: 366744920.

Date/timePositionNaut miles runAvg speedWind from/ knotsBaromVisibWave heightAir tempDewpointWater temp
2015-Dec-13 07:32N 52°16' W 128°25'1111.0
2015-Dec-13 06:33N 52°12' W 128°08'8 8.3
2015-Dec-13 05:33N 52°04' W 128°03'8 8.0
2015-Dec-13 04:30N 51°57' W 127°56'4510.9
2015-Dec-13 00:21N 51°12' W 127°51'911.7
2015-Dec-12 23:33N 51°05' W 127°42'1211.9
2015-Dec-12 22:33N 50°57' W 127°28'1111.2
2015-Dec-12 21:33N 50°50' W 127°13'7411.7
2015-Dec-12 15:10N 50°21' W 125°26'711.6
2015-Dec-12 14:32N 50°13' W 125°23'1010.3
2015-Dec-12 13:34N 50°05' W 125°16'10 9.5
2015-Dec-12 12:34N 49°57' W 125°07'1111.2
2015-Dec-12 11:33N 49°50' W 124°53'1110.8
2015-Dec-12 10:33N 49°43' W 124°40'1111.4
2015-Dec-12 09:34N 49°36' W 124°27'1111.3
2015-Dec-12 08:34N 49°30' W 124°11'1110.6
2015-Dec-12 07:34N 49°24' W 123°59'1110.7
2015-Dec-12 06:33N 49°17' W 123°46'1010.3
2015-Dec-12 05:34N 49°11' W 123°33'1110.7
2015-Dec-12 04:33N 49°04' W 123°21'9 9.5
2015-Dec-12 03:34N 48°58' W 123°10'10 9.8
2015-Dec-12 02:33N 48°51' W 122°58'10 9.8
2015-Dec-12 01:33N 48°46' W 122°46'9 9.4
2015-Dec-12 00:33N 48°36' W 122°45'1211.4
2015-Dec-11 23:31N 48°25' W 122°44'2210.3
2015-Dec-11 21:21N 48°03' W 122°38'911.1
2015-Dec-11 20:33N 47°56' W 122°29'1212.2
2015-Dec-11 19:34N 47°44' W 122°26'9 9.3
2015-Dec-11 18:34N 47°35' W 122°21'0 0.0
2015-Dec-11 17:33N 47°35' W 122°21'0 0.0
2015-Dec-11 16:34N 47°35' W 122°21'0 0.0
2015-Dec-11 15:34N 47°35' W 122°21'0 0.0
2015-Dec-11 14:34N 47°35' W 122°21'0 0.0
2015-Dec-11 13:34N 47°35' W 122°21'0 0.0
2015-Dec-11 12:34N 47°35' W 122°21'0 0.0
2015-Dec-11 11:33N 47°35' W 122°21'0 0.0
2015-Dec-11 10:33N 47°35' W 122°21'0 0.0
2015-Dec-11 09:34N 47°35' W 122°21'0 0.0
2015-Dec-11 08:34N 47°35' W 122°21'0 0.0
2015-Dec-11 07:34N 47°35' W 122°21'0 0.1
2015-Dec-11 06:34N 47°35' W 122°21'0 0.2
2015-Dec-11 05:34N 47°36' W 122°21'0 0.1
2015-Dec-11 04:34N 47°35' W 122°22'0 0.2
2015-Dec-11 03:34N 47°35' W 122°21'5 5.0
2015-Dec-11 02:34N 47°39' W 122°26'1110.6
2015-Dec-11 01:33N 47°50' W 122°24'3 3.4
2015-Dec-11 00:33N 47°53' W 122°22'1212.3
2015-Dec-10 23:33N 47°41' W 122°26'7 6.6
2015-Dec-10 22:33N 47°35' W 122°21'0 0.0
2015-Dec-10 21:33N 47°35' W 122°21'0 0.0
2015-Dec-10 20:33N 47°35' W 122°21'0 0.0
2015-Dec-10 19:33N 47°35' W 122°21'0 0.0
2015-Dec-10 18:33N 47°35' W 122°21'0 0.1
2015-Dec-10 17:34N 47°35' W 122°21'5 4.8
2015-Dec-10 16:34N 47°39' W 122°26'0 0.4
2015-Dec-10 15:34N 47°39' W 122°27'2 2.1
2015-Dec-10 14:32N 47°40' W 122°24'1 1.2
2015-Dec-10 13:32N 47°39' W 122°22'0 0.0
2015-Dec-10 12:32N 47°39' W 122°22'0 0.0
2015-Dec-10 11:32N 47°39' W 122°22'0 0.0
2015-Dec-10 10:32N 47°39' W 122°22'0 0.0
2015-Dec-10 09:32N 47°39' W 122°22'0 0.0
2015-Dec-10 08:32N 47°39' W 122°22'0 0.0
2015-Dec-10 07:32N 47°39' W 122°22'0 0.0
2015-Dec-10 06:32N 47°39' W 122°22'0 0.0
2015-Dec-10 05:32N 47°39' W 122°22'0 0.0
2015-Dec-10 04:28N 47°39' W 122°22'0 0.0
2015-Dec-10 03:31N 47°39' W 122°22'0 0.0
2015-Dec-10 02:31N 47°39' W 122°22'0 0.0
2015-Dec-10 01:31N 47°39' W 122°22'0 0.0
2015-Dec-10 00:31N 47°39' W 122°22'0 0.0
2015-Dec-09 23:31N 47°39' W 122°22'0 0.0
2015-Dec-09 22:31N 47°39' W 122°22'0 0.0
2015-Dec-09 21:31N 47°39' W 122°22'0 0.0
2015-Dec-09 20:31N 47°39' W 122°22'0 0.0
2015-Dec-09 19:31N 47°39' W 122°22'0 0.0
2015-Dec-09 18:31N 47°39' W 122°22'0 0.0
2015-Dec-09 17:31N 47°39' W 122°22'0 0.0
2015-Dec-09 16:31N 47°39' W 122°22'0 0.0
2015-Dec-09 15:31N 47°39' W 122°22'0 0.0
2015-Dec-09 14:31N 47°39' W 122°22'0 0.0
2015-Dec-09 13:31N 47°39' W 122°22'0 0.0
2015-Dec-09 12:31N 47°39' W 122°22'0 0.0
2015-Dec-09 11:31N 47°39' W 122°22'0 0.0
2015-Dec-09 10:31N 47°39' W 122°22'0 0.0
2015-Dec-09 09:31N 47°39' W 122°22'0 0.0
2015-Dec-09 08:31N 47°39' W 122°22'0 0.0
2015-Dec-09 07:28N 47°39' W 122°22'0 0.0
2015-Dec-09 06:31N 47°39' W 122°22'0 0.0
2015-Dec-09 05:31N 47°39' W 122°22'0 0.0
2015-Dec-09 04:31N 47°39' W 122°22'0 0.0
2015-Dec-09 03:31N 47°39' W 122°22'0 0.0
2015-Dec-09 02:31N 47°39' W 122°22'0 0.0
2015-Dec-09 01:31N 47°39' W 122°22'0 0.0
2015-Dec-09 00:31N 47°39' W 122°22'0 0.0
2015-Dec-08 23:31N 47°39' W 122°22'0 0.0
2015-Dec-08 22:31N 47°39' W 122°22'0 0.0
2015-Dec-08 21:31N 47°39' W 122°22'0 0.0
2015-Dec-08 20:34N 47°39' W 122°22'0 0.0
2015-Dec-08 19:33N 47°39' W 122°22'0 0.0
2015-Dec-08 18:33N 47°39' W 122°22'0 0.0
2015-Dec-08 17:33N 47°39' W 122°22'0 0.0
2015-Dec-08 16:33N 47°39' W 122°22'0 0.0
2015-Dec-08 15:33N 47°39' W 122°22'0 0.0
2015-Dec-08 14:33N 47°39' W 122°22'0 0.0
2015-Dec-08 13:33N 47°39' W 122°22'0 0.0
2015-Dec-08 12:33N 47°39' W 122°22'0 0.0
2015-Dec-08 11:33N 47°39' W 122°22'0 0.0
2015-Dec-08 10:33N 47°39' W 122°22'0 0.0
2015-Dec-08 09:33N 47°39' W 122°22'0 0.0
2015-Dec-08 08:33N 47°39' W 122°22'0 0.0
2015-Dec-08 07:33N 47°39' W 122°22'0 0.0
2015-Dec-08 06:33N 47°39' W 122°22'0 0.0
2015-Dec-08 05:33N 47°39' W 122°22'0 0.0
2015-Dec-08 04:33N 47°39' W 122°22'0 0.0
2015-Dec-08 03:33N 47°39' W 122°22'0 0.0
2015-Dec-08 02:33N 47°39' W 122°22'0 0.0
2015-Dec-08 01:33N 47°39' W 122°22'0 0.0
2015-Dec-08 00:33N 47°39' W 122°22'0 0.0
2015-Dec-07 23:33N 47°39' W 122°22'  

Dump ship's entire track history